Aérodrome :
LOGIN :

S'inscrire | Disclaimer

   EN    FR    IT 

 










Légende :    VFR   VFR Marginal   IFR   IFR Intensif   IFR Très Intensif
Visi : 
Plafond : 
>= 8 km
>= 3000ft
5 à 8 km
1000 à 3000 ft
1500m à 5 km
500 à 1000 ft
800 à 1500m
200 à 500 ft
< 800m
< 200 ft
Symboles :   Orages  Brouillard  Fortes neiges  Fortes précipitations  Vent > 20 kt
SIGMETs :   Divers  Orages  Givrage  Turbulence  Onde Orograph.  Cendres Volcan.






- Altitude de l'aérodrome : 124 ft
- Code IATA : RNS


LFRN - Rennes

DERNIER METAR :
  • 180530Z AUTO 30003KT 5000 R10/0900U BR NSC 00/M00 Q1025 NOSIG

METARs EXPIRÉS :
  • 180500Z AUTO 29003KT 9999 2300 NSC M00/M01 Q1025 TEMPO 4000 BR
  • 180430Z AUTO 26003KT CAVOK M01/M02 Q1024 TEMPO 4000 BR
  • 180400Z AUTO 28001KT CAVOK 00/M01 Q1025 TEMPO 4000 BR
  • 180330Z AUTO VRB03KT CAVOK 01/M00 Q1025 TEMPO 4000 BR
  • 180300Z AUTO 02004KT CAVOK 02/M01 Q1024 TEMPO 4000 BR

TAF TAF LFRN
Valide du 18 à 06h jusqu'au 19 à 06h UTC


180500Z 1806/1906 VRB03KT CAVOK
BECMG 1806/1809 03006KT
PROB40
TEMPO 1806/1807 3000 BR
BECMG 1816/1818 36010KT
BECMG 1821/1824 VRB05KT
PROB30
TEMPO 1900/1906 4000 BR
ATIS : +33 2 99 67 72 50



MET'MAP, la Météo Aéronautique d'un coup d'oeil ! - Copyright ORBIFLY Décembre 2007 - Disclaimer

ORBIFLY MET'MAP TEAM :

Programmation & Développement : Alexandra Zaïnal
Sur une idée originale de : Baudouin d'Aumeries
Assistance à la programmation : Marc-Olivier Méhu
Soutien technique & logistique : Manuel Goepfert

Contact : metmap@orbifly.com




SOURCES & CREDITS :

   NOAA